Aviation Digital Data Service (ADDS)

Output produced by METARs form (1018 UTC 28 July 2014)
found at http://aviationweather.gov/adds/metars/
 
KDAG 280950Z AUTO 26007KT 10SM CLR 27/16 A3002 RMK AO2 SLP133 T02720161
KDAG 280535Z 2806/2906 25008KT P6SM VCTS SCT070CB BKN090 
     FM280800 25008KT P6SM BKN100 
     FM282000 VRB06KT P6SM SCT120
       
KEDW 280958Z AUTO 29005KT 10SM CLR 28/13 A3005 RMK AO2 SLP144 T02750134
TAF KEDW 2810/2916 28009KT 9999 VCSH SCT100 BKN150 QNH3002INS 
     BECMG 2814/2815 21009KT 9999 NSW BKN120 QNH3004INS 
     BECMG 2820/2821 23015G25KT 9999 VCTS BKN100CB QNH3001INS 
     BECMG 2902/2903 25012KT 9999 NSW BKN150 QNH3004INS 
     BECMG 2908/2909 24009KT 9999 SCT160 QNH3008INS TX35/2821Z TN18/2912Z
       
KVCV 280955Z AUTO 27003KT 10SM -RA BKN085 OVC100 23/18 A3010 RMK AO2
KONT 280953Z 29006KT 10SM SCT140 BKN160 24/10 A3003 RMK AO2 SLP148 T02440100
KONT 280650Z 2807/2912 26007KT P6SM -SHRA SCT080 BKN150 BKN250 
     FM281000 VRB05KT P6SM FEW100 BKN150 BKN250 
     FM282100 25013KT P6SM BKN100 
     FM290400 25006KT P6SM SCT150
       
KNID 280956Z AUTO 24015KT 10SM BKN110 29/11 A3004 RMK AO2 RAB24E45 SLP144 P0000 T02940106
KSNA 280953Z AUTO 20006KT 10SM CLR 23/18 A3002 RMK AO2 SLP165 T02280183 TSNO
KSNA 280655Z 2807/2906 VRB05KT P6SM VCSH FEW011 SCT100 BKN250 
     FM281200 VRB03KT P6SM SCT010 SCT150 BKN250 
     FM282000 26008KT P6SM BKN100
       
KSAN 280951Z 31003KT 9SM OVC010 22/19 A3004 RMK AO2 SLP172 T02170194 $
KSAN 280858Z 2809/2912 VRB04KT P6SM SCT010 BKN200 
     TEMPO 2810/2814 BKN010 
     FM281900 27009KT P6SM FEW015 SCT200 
     FM290200 VRB04KT P6SM SCT012 
     FM290600 VRB03KT P6SM BKN012
       
KNXP 280956Z AUTO 30008KT 10SM CLR 29/13 A3008 RMK AO2 SLP143 T02940133
TAF KNXP 2809/2909 VRB06KT 9999 BKN200 QNH3004INS 
     BECMG 2820/2822 20012KT FEW060 BKN200 QNH3000INS 
     BECMG 2905/2907 VRB05KT BKN200 QNH3006INS AUTOMATED SENSOR METWATCH 2809 TIL 2815 T27/2812Z T38/2822Z
       
KPSP 280953Z AUTO 31005KT 10SM CLR 33/15 A2994 RMK AO2 SLP132 T03280150 TSNO
KPSP 280520Z 2806/2906 00000KT P6SM BKN180 
     FM281900 12007KT P6SM VCTS SCT080CB BKN150 
     FM290200 32008KT P6SM SCT080
       
KLAX 281011Z 25004KT 10SM SCT006 BKN011 BKN070 BKN300 20/18 A3003 RMK AO2 FRQ LTGCGCA DSNT SW CIG 006V013 CB DSNT SW TCU DSNT NE $
KLAX 281004Z 2810/2912 VRB03KT P6SM VCTS BKN008 BKN060CB 
     FM281600 25007KT P6SM VCSH BKN100 
     FM282100 26012KT P6SM BKN150 
     FM290600 VRB03KT P6SM SCT150
       
KCNO 280953Z AUTO 30007KT 9SM CLR 24/09 A3003 RMK AO2 SLP163 T02390089 $
KSMO 281001Z AUTO 00000KT 10SM BKN011 20/17 A3003 RMK AO2
KLGB 280953Z 00000KT 10SM BKN110 22/18 A3002 RMK AO2 SLP166 T02170178 $
KLGB 280530Z 2806/2906 VRB03KT P6SM BKN120 
     FM281200 VRB03KT 6SM BR BKN008 OVC100 
     FM281600 19008KT P6SM VCSH BKN100 
     FM282200 29008KT P6SM BKN150 
     FM290500 VRB03KT P6SM SCT150
       
KVNY 280951Z AUTO 00000KT 10SM CLR 22/14 A3003 RMK AO2 SLP158 T02170139
KVNY 280530Z 2806/2906 VRB03KT P6SM BKN150 
     FM281600 13008KT P6SM VCSH BKN100 
     FM282200 14010KT P6SM BKN150 
     FM290400 VRB03KT P6SM SCT150
       
KBUR 280953Z 00000KT 10SM CLR 21/16 A3003 RMK AO2 SLP154 T02110156
KBUR 280530Z 2806/2906 VRB03KT P6SM BKN150 
     FM281600 16008KT P6SM VCSH BKN100 
     FM282200 17010KT P6SM BKN150 
     FM290400 VRB03KT P6SM SCT150
       
KBFL 280954Z AUTO 00000KT 10SM CLR 29/06 A2995 RMK AO2 SLP133 T02890061
KBFL 280520Z 2806/2906 33012KT P6SM BKN200 
     FM281200 VRB04KT P6SM BKN120 BKN200 
     FM282200 34011KT P6SM BKN120 BKN200
       
KPMD 280953Z AUTO 22004KT 10SM CLR 27/02 A3008 RMK AO2 SLP151 T02670022
KPMD 280530Z 2806/2906 23012KT P6SM VCSH BKN100 
     FM280900 22007KT P6SM VCTS SCT060CB BKN100 
     FM281500 23012KT P6SM BKN100 
     FM282000 24017G25KT P6SM VCTS SCT060CB BKN120 
     FM290300 24012KT P6SM BKN120
       
KOXR 280951Z AUTO 00000KT 8SM CLR 19/17 A3001 RMK AO2 SLP160 T01890167
KOXR 280530Z 2806/2906 VRB03KT P6SM BKN120 
     FM281100 VRB03KT 5SM BR BKN008 OVC120 
     FM281700 26008KT P6SM VCSH BKN100 
     FM282200 27012KT P6SM BKN150 
     FM290400 VRB03KT P6SM SCT150
       
KWJF 280956Z 27004KT 10SM CLR 25/03 A3007 RMK AO2 SLP158 T02500028 $
KWJF 280530Z 2806/2906 23012KT P6SM VCSH BKN100 
     FM280900 22007KT P6SM VCTS SCT060CB BKN100 
     FM281500 23012KT P6SM BKN100 
     FM282000 24017G25KT P6SM VCTS SCT060CB BKN120 
     FM290300 24012KT P6SM BKN120
       
KCMA 280955Z AUTO 00000KT 10SM CLR 19/17 A3001 RMK AO2 SLP170 T01940167
KFAT 280953Z 32007KT 10SM SCT150 BKN200 27/09 A2991 RMK AO2 SLP122 T02720089 $
KFAT 280520Z 2806/2906 30010KT P6SM SCT200 
     FM281200 VRB04KT P6SM BKN120 BKN200 
     FM282200 30010KT P6SM BKN120 BKN200
       
KEED 280956Z AUTO 27006KT 10SM CLR 32/12 A2993 RMK AO2 SLP096 T03220122 $
KEED 280535Z 2806/2906 24009KT P6SM SCT150 
     FM281200 VRB06KT P6SM SCT150 
     FM281800 19011KT P6SM VCTS SCT120CB
       
KLSV 281005Z AUTO 35003KT 10SM TS SCT042 SCT080 BKN110 25/20 A3003 RMK AO2 LTG DSNT NE AND SE
TAF KLSV 2809/2915 04009KT 9999 SCT130 QNH2998INS 
     TEMPO 2809/2812 -TSRA BKN100CB 
     BECMG 2819/2820 17012KT 9999 SCT110 QNH2990INS 
     TEMPO 2820/2902 VRB20G30KT -TSRA BKN110CB 
     BECMG 2910/2911 12009KT 9999 SCT100 QNH3005INS TX40/2822Z TN30/2812Z
       
KLAS 280956Z 20007KT 10SM FEW050 BKN110 27/16 A3002 RMK AO2 TSB17E47 SLP135 OCNL LTGICCACG DSNT NW-NE-E CB DSNT NW-NE-E MOV NW VCSH T02720161
KLAS 280852Z 2809/2906 18008KT P6SM VCTS SCT080CB BKN150 
     TEMPO 2809/2812 15015G25KT TSRA BKN060CB 
     FM281200 VRB05KT P6SM SCT080 BKN150 
     FM281900 18010KT P6SM VCTS SCT100CB
       
KHII 280950Z AUTO 10003KT 10SM CLR 32/10 A2992 RMK AO2
KIFP 280955Z AUTO 00000KT 10SM CLR 33/15 A2993 RMK AO2